Time;durP1;ratioP1;P1;durP2;ratioP2;P2;SDS_P1;SDS_P2;PMS_P1;PMS_P2;Temp;Humidity;BMP_temperature;BMP_pressure;BME280_temperature;BME280_humidity;BME280_pressure;Samples;Min_cycle;Max_cycle;Signal;HPM_P1;HPM_P2
2024/03/19 00:00:49;;;;;;;6.75;3.63;;;;;;;;;;5080539;28;20683;-78
2024/03/19 00:03:15;;;;;;;5.15;3.60;;;;;;;;;;5066396;28;20119;-78
2024/03/19 00:05:42;;;;;;;9.45;3.88;;;;;;;;;;5059989;28;20056;-78
2024/03/19 00:08:07;;;;;;;5.45;3.47;;;;;;;;;;5056270;28;20045;-78
2024/03/19 00:10:33;;;;;;;7.15;2.97;;;;;;;;;;5046932;28;20029;-79
2024/03/19 00:12:58;;;;;;;4.20;3.47;;;;;;;;;;5070495;28;20028;-78
2024/03/19 00:15:24;;;;;;;5.22;3.33;;;;;;;;;;5070416;28;20530;-78
2024/03/19 00:17:50;;;;;;;5.88;3.58;;;;;;;;;;5068844;28;20032;-78
2024/03/19 00:20:15;;;;;;;8.63;3.45;;;;;;;;;;5071788;28;20071;-78
2024/03/19 00:22:41;;;;;;;7.68;3.90;;;;;;;;;;5056432;28;20040;-78
2024/03/19 00:25:07;;;;;;;6.50;3.17;;;;;;;;;;5054148;28;20110;-78
2024/03/19 00:27:32;;;;;;;6.72;3.53;;;;;;;;;;5054696;28;20033;-78
2024/03/19 00:29:58;;;;;;;9.05;4.20;;;;;;;;;;5074740;28;20043;-79
2024/03/19 00:32:24;;;;;;;6.15;3.80;;;;;;;;;;5054125;28;20412;-79
2024/03/19 00:34:49;;;;;;;6.55;3.60;;;;;;;;;;5073635;28;20472;-78
2024/03/19 00:37:15;;;;;;;6.97;3.75;;;;;;;;;;5050575;28;20041;-77
2024/03/19 00:39:40;;;;;;;6.45;3.90;;;;;;;;;;5052864;28;20039;-77
2024/03/19 00:42:06;;;;;;;3.08;2.03;;;;;;;;;;5069482;28;20071;-77
2024/03/19 00:44:32;;;;;;;7.63;3.63;;;;;;;;;;5043713;28;20046;-77
2024/03/19 00:46:58;;;;;;;5.43;3.15;;;;;;;;;;5057982;28;20036;-78
2024/03/19 00:49:24;;;;;;;6.90;4.05;;;;;;;;;;5072589;28;20463;-77
2024/03/19 00:51:49;;;;;;;6.45;3.60;;;;;;;;;;5069552;28;20032;-78
2024/03/19 00:54:15;;;;;;;8.00;3.67;;;;;;;;;;5068283;28;20043;-77
2024/03/19 00:56:40;;;;;;;6.22;3.50;;;;;;;;;;5064513;28;20036;-77
2024/03/19 00:59:06;;;;;;;9.15;3.65;;;;;;;;;;5053139;28;20028;-77
2024/03/19 01:01:31;;;;;;;5.22;3.20;;;;;;;;;;5046097;28;20885;-77
2024/03/19 01:04:00;;;;;;;7.50;3.25;;;;;;;;;;5065449;28;20164;-75
2024/03/19 01:06:25;;;;;;;6.38;3.50;;;;;;;;;;5069073;28;20433;-77
2024/03/19 01:08:51;;;;;;;6.15;3.97;;;;;;;;;;5071895;28;20036;-77
2024/03/19 01:11:17;;;;;;;3.90;2.67;;;;;;;;;;5058299;28;20025;-77
2024/03/19 01:13:43;;;;;;;6.10;3.72;;;;;;;;;;5068661;28;20032;-76
2024/03/19 01:16:09;;;;;;;7.18;3.63;;;;;;;;;;5075344;28;20547;-77
2024/03/19 01:18:35;;;;;;;6.38;3.22;;;;;;;;;;5066956;28;20033;-78
2024/03/19 01:21:01;;;;;;;6.57;3.35;;;;;;;;;;5075704;28;20058;-78
2024/03/19 01:23:26;;;;;;;11.02;5.47;;;;;;;;;;5071234;28;20028;-77
2024/03/19 01:25:51;;;;;;;16.55;5.30;;;;;;;;;;5071159;28;20361;-77
2024/03/19 01:28:17;;;;;;;15.38;6.13;;;;;;;;;;5072205;28;20174;-78
2024/03/19 01:30:42;;;;;;;6.57;3.80;;;;;;;;;;5058941;28;20044;-77
2024/03/19 01:33:07;;;;;;;8.65;4.10;;;;;;;;;;5073267;28;20533;-78
2024/03/19 01:35:33;;;;;;;12.32;4.88;;;;;;;;;;5063875;28;20044;-78
2024/03/19 01:37:58;;;;;;;14.27;5.72;;;;;;;;;;5074555;28;20081;-76
2024/03/19 01:40:24;;;;;;;13.93;6.10;;;;;;;;;;5077364;28;20044;-78
2024/03/19 01:42:49;;;;;;;11.75;4.95;;;;;;;;;;5058562;28;20481;-78
2024/03/19 01:45:15;;;;;;;11.52;5.03;;;;;;;;;;5051620;28;20044;-78
2024/03/19 01:47:42;;;;;;;6.60;3.90;;;;;;;;;;5058071;28;20044;-78
2024/03/19 01:50:09;;;;;;;8.65;4.55;;;;;;;;;;5071265;28;20081;-77
2024/03/19 01:52:38;;;;;;;9.02;4.38;;;;;;;;;;5062820;28;20028;-78
2024/03/19 01:55:05;;;;;;;7.60;3.67;;;;;;;;;;5070404;28;20062;-77
2024/03/19 01:57:31;;;;;;;7.13;3.75;;;;;;;;;;5054424;28;20466;-78
2024/03/19 01:59:57;;;;;;;5.88;3.42;;;;;;;;;;5063998;28;20039;-78
2024/03/19 02:02:30;;;;;;;8.45;3.90;;;;;;;;;;5074137;28;20043;-77
2024/03/19 02:04:56;;;;;;;7.63;3.50;;;;;;;;;;5071497;28;20039;-77
2024/03/19 02:07:21;;;;;;;6.97;3.78;;;;;;;;;;5065650;28;20032;-77
2024/03/19 02:09:49;;;;;;;12.52;5.75;;;;;;;;;;5076300;28;20034;-78
2024/03/19 02:12:15;;;;;;;8.65;4.80;;;;;;;;;;5077380;28;20072;-77
2024/03/19 02:14:40;;;;;;;6.68;3.75;;;;;;;;;;5068909;28;20577;-77
2024/03/19 02:17:06;;;;;;;5.85;3.95;;;;;;;;;;5064033;28;20945;-78
2024/03/19 02:19:34;;;;;;;6.22;3.55;;;;;;;;;;5076673;28;20126;-78
2024/03/19 02:21:59;;;;;;;8.00;4.00;;;;;;;;;;5057315;28;20032;-77
2024/03/19 02:24:24;;;;;;;5.90;3.40;;;;;;;;;;5064940;28;20043;-78
2024/03/19 02:26:50;;;;;;;7.72;3.60;;;;;;;;;;5076811;28;20032;-78
2024/03/19 02:29:15;;;;;;;6.63;4.18;;;;;;;;;;5073988;28;20056;-77
2024/03/19 02:31:41;;;;;;;7.85;4.18;;;;;;;;;;5077616;28;20051;-78
2024/03/19 02:34:06;;;;;;;8.90;3.50;;;;;;;;;;5060145;28;20564;-78
2024/03/19 02:36:31;;;;;;;6.15;3.53;;;;;;;;;;5066119;28;20051;-76
2024/03/19 02:38:57;;;;;;;6.13;4.10;;;;;;;;;;5071796;28;20535;-77
2024/03/19 02:41:22;;;;;;;5.57;3.38;;;;;;;;;;5058972;28;20178;-77
2024/03/19 02:43:47;;;;;;;4.45;3.20;;;;;;;;;;5081107;28;21134;-77
2024/03/19 02:46:13;;;;;;;3.83;2.42;;;;;;;;;;5071235;28;20448;-77
2024/03/19 02:48:38;;;;;;;5.95;3.72;;;;;;;;;;5076237;28;20040;-77
2024/03/19 02:51:04;;;;;;;6.75;4.00;;;;;;;;;;5072760;28;20043;-77
2024/03/19 02:53:30;;;;;;;6.47;3.88;;;;;;;;;;5057455;28;20040;-77
2024/03/19 02:55:55;;;;;;;4.88;3.30;;;;;;;;;;5074147;28;20035;-77
2024/03/19 02:58:21;;;;;;;5.25;3.50;;;;;;;;;;5061101;28;20109;-77
2024/03/19 03:00:46;;;;;;;8.77;3.65;;;;;;;;;;5075589;28;20082;-77
2024/03/19 03:03:12;;;;;;;7.45;3.83;;;;;;;;;;5071933;28;20036;-77
2024/03/19 03:05:37;;;;;;;6.40;3.58;;;;;;;;;;5056210;28;20036;-77
2024/03/19 03:08:04;;;;;;;6.53;3.70;;;;;;;;;;5071911;28;20465;-77
2024/03/19 03:10:29;;;;;;;4.15;2.83;;;;;;;;;;5059070;28;20574;-77
2024/03/19 03:12:55;;;;;;;6.13;3.33;;;;;;;;;;5058400;28;20169;-77
2024/03/19 03:15:21;;;;;;;5.22;3.45;;;;;;;;;;5072438;28;20036;-77
2024/03/19 03:17:46;;;;;;;5.97;3.53;;;;;;;;;;5062516;28;20486;-78
2024/03/19 03:20:12;;;;;;;6.10;4.10;;;;;;;;;;5060577;28;20111;-77
2024/03/19 03:22:38;;;;;;;5.47;3.22;;;;;;;;;;5069019;28;20608;-78
2024/03/19 03:25:08;;;;;;;8.10;3.83;;;;;;;;;;5056937;28;20040;-77
2024/03/19 03:27:34;;;;;;;6.72;3.75;;;;;;;;;;5050881;28;20056;-78
2024/03/19 03:30:00;;;;;;;3.58;2.55;;;;;;;;;;5073404;28;20540;-77
2024/03/19 03:32:26;;;;;;;5.05;3.20;;;;;;;;;;5057900;28;20469;-77
2024/03/19 03:34:51;;;;;;;5.07;3.33;;;;;;;;;;5058322;28;20071;-76
2024/03/19 03:37:17;;;;;;;7.15;4.07;;;;;;;;;;5053108;28;20032;-77
2024/03/19 03:39:43;;;;;;;5.05;3.20;;;;;;;;;;5067384;28;20064;-78
2024/03/19 03:42:09;;;;;;;5.00;3.30;;;;;;;;;;5072754;28;20043;-77
2024/03/19 03:44:34;;;;;;;5.35;3.90;;;;;;;;;;5052151;28;20029;-77
2024/03/19 03:46:59;;;;;;;5.30;3.70;;;;;;;;;;5072832;28;20416;-78
2024/03/19 03:49:26;;;;;;;6.07;3.20;;;;;;;;;;5065101;28;20085;-78
2024/03/19 03:51:52;;;;;;;6.18;3.40;;;;;;;;;;5077792;28;20363;-78
2024/03/19 03:54:17;;;;;;;4.82;3.28;;;;;;;;;;5075170;28;20058;-78
2024/03/19 03:56:43;;;;;;;6.63;3.58;;;;;;;;;;5074378;28;20028;-78
2024/03/19 03:59:08;;;;;;;5.10;3.30;;;;;;;;;;5077463;28;20718;-78
2024/03/19 04:01:33;;;;;;;6.25;3.50;;;;;;;;;;5075655;28;20097;-77
2024/03/19 04:03:59;;;;;;;3.95;2.90;;;;;;;;;;5073544;28;20032;-77
2024/03/19 04:06:24;;;;;;;6.82;3.83;;;;;;;;;;5070345;28;20695;-77
2024/03/19 04:08:49;;;;;;;5.70;3.35;;;;;;;;;;5066901;28;20032;-77
2024/03/19 04:11:15;;;;;;;6.00;3.53;;;;;;;;;;5069515;28;20098;-78
2024/03/19 04:13:40;;;;;;;5.70;3.28;;;;;;;;;;5073928;28;20681;-77
2024/03/19 04:16:06;;;;;;;5.22;3.30;;;;;;;;;;5073460;28;20048;-77
2024/03/19 04:18:31;;;;;;;5.95;3.42;;;;;;;;;;5072300;28;20524;-78
2024/03/19 04:20:57;;;;;;;6.47;3.45;;;;;;;;;;5068123;28;20036;-76
2024/03/19 04:23:22;;;;;;;4.88;3.50;;;;;;;;;;5075087;28;20040;-77
2024/03/19 04:25:48;;;;;;;6.43;3.80;;;;;;;;;;5062004;28;20548;-77
2024/03/19 04:28:13;;;;;;;5.43;3.30;;;;;;;;;;5070997;28;20090;-78
2024/03/19 04:30:39;;;;;;;5.18;3.35;;;;;;;;;;5071270;28;20064;-77
2024/03/19 04:33:04;;;;;;;5.53;3.05;;;;;;;;;;5073847;28;20073;-78
2024/03/19 04:35:29;;;;;;;8.23;3.63;;;;;;;;;;5071248;28;20085;-78
2024/03/19 04:37:55;;;;;;;10.55;3.70;;;;;;;;;;5057359;28;20032;-78
2024/03/19 04:40:21;;;;;;;5.72;3.28;;;;;;;;;;5062980;28;20032;-78
2024/03/19 04:42:47;;;;;;;6.50;3.35;;;;;;;;;;5061734;28;20032;-78
2024/03/19 04:45:12;;;;;;;3.85;3.10;;;;;;;;;;5073217;28;20047;-78
2024/03/19 04:47:37;;;;;;;4.65;2.85;;;;;;;;;;5073043;28;20035;-78
2024/03/19 04:50:03;;;;;;;6.28;3.03;;;;;;;;;;5076047;28;20097;-78
2024/03/19 04:52:29;;;;;;;5.30;3.15;;;;;;;;;;5075018;28;20036;-77
2024/03/19 04:54:54;;;;;;;4.13;2.78;;;;;;;;;;5072709;28;20032;-77
2024/03/19 04:57:19;;;;;;;6.22;2.90;;;;;;;;;;5061315;28;20043;-78
2024/03/19 04:59:45;;;;;;;5.57;3.25;;;;;;;;;;5061934;28;20115;-78
2024/03/19 05:02:11;;;;;;;4.22;3.05;;;;;;;;;;5072221;28;20417;-78
2024/03/19 05:04:36;;;;;;;8.52;3.15;;;;;;;;;;5074933;28;20466;-78
2024/03/19 05:07:03;;;;;;;4.05;2.58;;;;;;;;;;5071607;28;20488;-79
2024/03/19 05:09:28;;;;;;;5.68;3.50;;;;;;;;;;5078526;28;20225;-77
2024/03/19 05:11:53;;;;;;;5.35;3.10;;;;;;;;;;5076070;28;20505;-78
2024/03/19 05:14:19;;;;;;;4.82;3.13;;;;;;;;;;5076504;28;20120;-77
2024/03/19 05:16:44;;;;;;;5.95;3.15;;;;;;;;;;5068890;28;20058;-77
2024/03/19 05:19:10;;;;;;;6.65;3.22;;;;;;;;;;5070090;28;20040;-77
2024/03/19 05:21:35;;;;;;;4.72;3.42;;;;;;;;;;5059220;28;20112;-76
2024/03/19 05:24:00;;;;;;;4.00;2.05;;;;;;;;;;5054978;28;20032;-77
2024/03/19 05:26:26;;;;;;;5.20;3.45;;;;;;;;;;5068404;28;20039;-77
2024/03/19 05:28:51;;;;;;;5.63;3.35;;;;;;;;;;5072111;28;20044;-77
2024/03/19 05:31:24;;;;;;;5.85;2.47;;;;;;;;;;5056816;28;20044;-77
2024/03/19 05:33:54;;;;;;;7.75;3.28;;;;;;;;;;5039967;28;20033;-77
2024/03/19 05:36:23;;;;;;;4.85;3.10;;;;;;;;;;5055376;28;20037;-78
2024/03/19 05:38:49;;;;;;;4.15;2.80;;;;;;;;;;5067348;28;20032;-77
2024/03/19 05:41:15;;;;;;;4.28;2.97;;;;;;;;;;5048940;28;20039;-78
2024/03/19 05:43:48;;;;;;;5.97;2.28;;;;;;;;;;5067133;28;20040;-77
2024/03/19 05:46:13;;;;;;;5.80;3.30;;;;;;;;;;5064493;28;20032;-77
2024/03/19 05:48:39;;;;;;;5.50;3.47;;;;;;;;;;5052861;28;20040;-77
2024/03/19 05:51:07;;;;;;;6.28;3.70;;;;;;;;;;5055393;28;20128;-78
2024/03/19 05:53:34;;;;;;;5.80;2.65;;;;;;;;;;5059935;28;20068;-78
2024/03/19 05:56:01;;;;;;;4.63;3.17;;;;;;;;;;5068401;28;20089;-78
2024/03/19 05:58:26;;;;;;;3.53;2.63;;;;;;;;;;5065573;28;20046;-76
2024/03/19 06:00:52;;;;;;;4.60;3.30;;;;;;;;;;5067402;28;20036;-76
2024/03/19 06:03:17;;;;;;;6.20;3.33;;;;;;;;;;5060824;28;20052;-77
2024/03/19 06:05:44;;;;;;;6.43;3.72;;;;;;;;;;5049524;28;20029;-77
2024/03/19 06:08:10;;;;;;;5.10;3.17;;;;;;;;;;5054471;28;20040;-76
2024/03/19 06:10:36;;;;;;;4.80;3.45;;;;;;;;;;5058896;28;20032;-77
2024/03/19 06:13:01;;;;;;;6.78;3.58;;;;;;;;;;5069365;28;20048;-77
2024/03/19 06:15:27;;;;;;;4.95;3.33;;;;;;;;;;5068151;28;20605;-76
2024/03/19 06:17:53;;;;;;;6.18;3.80;;;;;;;;;;5055935;28;20154;-76
2024/03/19 06:20:20;;;;;;;4.65;3.22;;;;;;;;;;5061855;28;20571;-76
2024/03/19 06:22:46;;;;;;;7.22;4.50;;;;;;;;;;5050930;28;20441;-76
2024/03/19 06:25:12;;;;;;;9.35;4.20;;;;;;;;;;5054696;28;20048;-76
2024/03/19 06:27:38;;;;;;;4.68;3.45;;;;;;;;;;5062872;28;20082;-76
2024/03/19 06:30:05;;;;;;;10.43;3.75;;;;;;;;;;5070723;28;20039;-76
2024/03/19 06:32:30;;;;;;;6.30;4.10;;;;;;;;;;5062314;28;20505;-77
2024/03/19 06:34:56;;;;;;;4.78;3.20;;;;;;;;;;5066511;28;20084;-76
2024/03/19 06:37:21;;;;;;;7.30;4.03;;;;;;;;;;5054647;28;20036;-76
2024/03/19 06:39:47;;;;;;;6.40;3.97;;;;;;;;;;5043632;28;20029;-76
2024/03/19 06:42:12;;;;;;;5.35;2.78;;;;;;;;;;5068427;28;20034;-75
2024/03/19 06:44:37;;;;;;;7.30;3.45;;;;;;;;;;5071890;28;20111;-76
2024/03/19 06:47:03;;;;;;;5.97;4.32;;;;;;;;;;5062704;28;20043;-75
2024/03/19 06:49:28;;;;;;;5.97;3.85;;;;;;;;;;5059949;28;20753;-76
2024/03/19 06:51:54;;;;;;;6.22;3.83;;;;;;;;;;5071246;28;20082;-76
2024/03/19 06:54:19;;;;;;;6.15;3.45;;;;;;;;;;5072038;28;20036;-76
2024/03/19 06:56:45;;;;;;;6.18;4.07;;;;;;;;;;5058049;28;20093;-76
2024/03/19 06:59:11;;;;;;;5.13;3.70;;;;;;;;;;5064213;28;20410;-76
2024/03/19 07:01:39;;;;;;;7.00;4.28;;;;;;;;;;5059934;28;20090;-77
2024/03/19 07:04:05;;;;;;;7.18;3.92;;;;;;;;;;5050398;28;20045;-77
2024/03/19 07:06:32;;;;;;;7.32;3.42;;;;;;;;;;5051566;28;20040;-77
2024/03/19 07:08:57;;;;;;;6.55;4.60;;;;;;;;;;5052894;28;20036;-77
2024/03/19 07:11:23;;;;;;;6.43;3.88;;;;;;;;;;5052554;28;20558;-77
2024/03/19 07:13:49;;;;;;;6.65;4.45;;;;;;;;;;5054456;28;20044;-77
2024/03/19 07:16:15;;;;;;;6.30;4.20;;;;;;;;;;5064564;28;20164;-77
2024/03/19 07:18:40;;;;;;;6.10;4.07;;;;;;;;;;5061869;28;20040;-77
2024/03/19 07:21:06;;;;;;;6.45;3.92;;;;;;;;;;5054144;28;20032;-77
2024/03/19 07:23:31;;;;;;;7.03;4.55;;;;;;;;;;5053439;28;20417;-77
2024/03/19 07:25:56;;;;;;;7.57;4.05;;;;;;;;;;5061627;28;20032;-77
2024/03/19 07:28:22;;;;;;;4.93;3.65;;;;;;;;;;5065330;28;20113;-77
2024/03/19 07:30:48;;;;;;;4.50;3.47;;;;;;;;;;5033629;28;20036;-77
2024/03/19 07:33:13;;;;;;;7.63;4.18;;;;;;;;;;5054341;28;20033;-77
2024/03/19 07:35:38;;;;;;;8.02;4.28;;;;;;;;;;5052581;28;20037;-77
2024/03/19 07:38:07;;;;;;;5.82;3.72;;;;;;;;;;5049409;28;20032;-77
2024/03/19 07:40:33;;;;;;;5.38;3.80;;;;;;;;;;5056129;28;20043;-77
2024/03/19 07:42:58;;;;;;;8.35;4.05;;;;;;;;;;5063084;28;20040;-77
2024/03/19 07:45:24;;;;;;;6.55;4.30;;;;;;;;;;5065137;28;20122;-77
2024/03/19 07:47:49;;;;;;;7.80;4.00;;;;;;;;;;5026308;28;20038;-77
2024/03/19 07:50:18;;;;;;;6.07;4.40;;;;;;;;;;5052825;28;20048;-77
2024/03/19 07:52:44;;;;;;;7.55;3.90;;;;;;;;;;5061101;28;20377;-77
2024/03/19 07:55:10;;;;;;;6.55;4.40;;;;;;;;;;5061874;28;20086;-77
2024/03/19 07:57:35;;;;;;;5.75;3.85;;;;;;;;;;5064728;28;20122;-77
2024/03/19 08:00:11;;;;;;;6.60;4.45;;;;;;;;;;5070372;28;20082;-77
2024/03/19 08:02:40;;;;;;;6.32;4.00;;;;;;;;;;5058198;28;20062;-77
2024/03/19 08:05:07;;;;;;;7.13;4.18;;;;;;;;;;5067725;28;20074;-77
2024/03/19 08:07:35;;;;;;;6.30;4.40;;;;;;;;;;5062002;28;20029;-77
2024/03/19 08:10:00;;;;;;;5.20;3.83;;;;;;;;;;5050705;28;20036;-77
2024/03/19 08:12:25;;;;;;;6.20;4.07;;;;;;;;;;5063066;28;20401;-77
2024/03/19 08:14:52;;;;;;;5.85;4.47;;;;;;;;;;5054776;28;20602;-78
2024/03/19 08:17:18;;;;;;;5.85;3.95;;;;;;;;;;5067776;28;20035;-77
2024/03/19 08:19:43;;;;;;;6.43;4.35;;;;;;;;;;5027015;28;20071;-76
2024/03/19 08:22:09;;;;;;;9.07;4.30;;;;;;;;;;5068024;28;20064;-77
2024/03/19 08:24:34;;;;;;;5.43;4.07;;;;;;;;;;5068635;28;20077;-77
2024/03/19 08:27:00;;;;;;;6.18;4.07;;;;;;;;;;5060101;28;20138;-77
2024/03/19 08:29:26;;;;;;;5.93;4.10;;;;;;;;;;5059399;28;20026;-77
2024/03/19 08:31:51;;;;;;;6.20;4.32;;;;;;;;;;5070212;28;20618;-77
2024/03/19 08:34:17;;;;;;;5.95;3.60;;;;;;;;;;5067450;28;20028;-77
2024/03/19 08:36:42;;;;;;;3.17;2.28;;;;;;;;;;5054174;28;20045;-77
2024/03/19 08:39:09;;;;;;;4.63;2.83;;;;;;;;;;5065282;28;20374;-77
2024/03/19 08:41:34;;;;;;;5.60;4.35;;;;;;;;;;5065574;28;20496;-77
2024/03/19 08:44:02;;;;;;;2.03;1.60;;;;;;;;;;5057723;28;20039;-77
2024/03/19 08:46:27;;;;;;;5.30;4.22;;;;;;;;;;5061257;28;20036;-77
2024/03/19 08:48:53;;;;;;;6.05;4.45;;;;;;;;;;5054914;28;20633;-77
2024/03/19 08:51:19;;;;;;;7.45;4.20;;;;;;;;;;5069654;28;20033;-77
2024/03/19 08:53:47;;;;;;;5.88;4.07;;;;;;;;;;5023897;28;20029;-77
2024/03/19 08:56:13;;;;;;;5.97;3.83;;;;;;;;;;5051553;28;20523;-77
2024/03/19 08:58:38;;;;;;;6.70;4.57;;;;;;;;;;5062581;28;20043;-77
2024/03/19 09:01:04;;;;;;;10.18;4.22;;;;;;;;;;5074597;28;20040;-77
2024/03/19 09:03:29;;;;;;;6.07;4.70;;;;;;;;;;5062428;28;20044;-77
2024/03/19 09:05:58;;;;;;;6.78;4.80;;;;;;;;;;5064649;28;20032;-77
2024/03/19 09:08:24;;;;;;;8.40;4.55;;;;;;;;;;5043679;28;20056;-77
2024/03/19 09:10:54;;;;;;;5.63;4.07;;;;;;;;;;5069845;28;20029;-77
2024/03/19 09:13:20;;;;;;;8.40;5.00;;;;;;;;;;5070210;28;20040;-78
2024/03/19 09:15:49;;;;;;;7.05;4.75;;;;;;;;;;5067962;28;20524;-78
2024/03/19 09:18:15;;;;;;;6.90;5.32;;;;;;;;;;5052193;28;20833;-78
2024/03/19 09:20:41;;;;;;;6.68;4.68;;;;;;;;;;5052408;28;20119;-78
2024/03/19 09:23:07;;;;;;;7.15;4.97;;;;;;;;;;5050876;28;20468;-78
2024/03/19 09:25:33;;;;;;;8.13;5.25;;;;;;;;;;5040134;28;20033;-78
2024/03/19 09:27:58;;;;;;;8.27;4.53;;;;;;;;;;5053337;28;20040;-78
2024/03/19 09:30:24;;;;;;;6.32;4.15;;;;;;;;;;5064387;28;20028;-78
2024/03/19 09:32:49;;;;;;;6.68;5.03;;;;;;;;;;5061913;28;20043;-78
2024/03/19 09:35:15;;;;;;;8.07;4.60;;;;;;;;;;5069598;28;20044;-78
2024/03/19 09:37:43;;;;;;;6.90;4.88;;;;;;;;;;5047599;28;20114;-78
2024/03/19 09:40:10;;;;;;;7.63;5.10;;;;;;;;;;5055200;28;20039;-78
2024/03/19 09:42:36;;;;;;;8.73;5.03;;;;;;;;;;5043972;28;20032;-77
2024/03/19 09:45:04;;;;;;;6.97;4.70;;;;;;;;;;5070415;28;20043;-78
2024/03/19 09:47:31;;;;;;;6.65;4.50;;;;;;;;;;5064761;28;20508;-77
2024/03/19 09:49:58;;;;;;;7.05;4.50;;;;;;;;;;5052839;28;20028;-78
2024/03/19 09:52:24;;;;;;;8.70;4.72;;;;;;;;;;5070813;28;20068;-77
2024/03/19 09:54:50;;;;;;;6.85;4.80;;;;;;;;;;5076532;28;20105;-77
2024/03/19 09:57:18;;;;;;;6.80;4.60;;;;;;;;;;5053967;28;20094;-78
2024/03/19 09:59:44;;;;;;;8.18;4.88;;;;;;;;;;5024742;28;20142;-78
2024/03/19 10:02:20;;;;;;;9.40;5.20;;;;;;;;;;5064745;28;20055;-78
2024/03/19 10:04:48;;;;;;;7.35;4.55;;;;;;;;;;5074096;28;20173;-77
2024/03/19 10:07:20;;;;;;;9.27;5.35;;;;;;;;;;5070260;28;20115;-78
2024/03/19 10:09:47;;;;;;;7.55;5.10;;;;;;;;;;5064456;28;20472;-78
2024/03/19 10:12:14;;;;;;;9.15;5.38;;;;;;;;;;5065534;28;20032;-77
2024/03/19 10:14:39;;;;;;;4.85;2.60;;;;;;;;;;5076011;28;20032;-77
2024/03/19 10:17:07;;;;;;;8.07;4.72;;;;;;;;;;5078462;28;20799;-77
2024/03/19 10:19:32;;;;;;;7.45;4.32;;;;;;;;;;5070295;28;20027;-77
2024/03/19 10:21:58;;;;;;;7.65;5.28;;;;;;;;;;5068461;28;20027;-77
2024/03/19 10:24:24;;;;;;;9.88;5.05;;;;;;;;;;5071371;28;20043;-78
2024/03/19 10:26:51;;;;;;;7.28;4.57;;;;;;;;;;5070764;28;20036;-78
2024/03/19 10:29:16;;;;;;;7.05;4.78;;;;;;;;;;5064298;28;20066;-78
2024/03/19 10:31:43;;;;;;;6.65;4.70;;;;;;;;;;5070877;28;20052;-78
2024/03/19 10:34:19;;;;;;;11.48;5.88;;;;;;;;;;5070494;28;20523;-78
2024/03/19 10:36:48;;;;;;;8.77;5.18;;;;;;;;;;5065225;28;20479;-78
2024/03/19 10:39:15;;;;;;;7.88;5.25;;;;;;;;;;5055261;28;20025;-78
2024/03/19 10:41:42;;;;;;;6.82;4.75;;;;;;;;;;5066601;28;20028;-79
2024/03/19 10:44:15;;;;;;;7.85;5.35;;;;;;;;;;5060838;28;20134;-79
2024/03/19 10:46:41;;;;;;;8.45;5.32;;;;;;;;;;5076146;28;20029;-79
2024/03/19 10:49:07;;;;;;;10.10;5.50;;;;;;;;;;5078510;28;20428;-79
2024/03/19 10:51:33;;;;;;;7.60;5.00;;;;;;;;;;5064742;28;20086;-78
2024/03/19 10:54:00;;;;;;;6.65;5.30;;;;;;;;;;5065111;28;20032;-79
2024/03/19 10:56:29;;;;;;;5.63;3.45;;;;;;;;;;5076299;28;20043;-78
2024/03/19 10:58:55;;;;;;;6.03;4.63;;;;;;;;;;5070781;28;20036;-79
2024/03/19 11:01:20;;;;;;;7.68;5.43;;;;;;;;;;5063781;28;20032;-77
2024/03/19 11:03:52;;;;;;;2.45;1.38;;;;;;;;;;5075426;28;20126;-76
2024/03/19 11:06:22;;;;;;;4.22;3.60;;;;;;;;;;5056817;28;20040;-77
2024/03/19 11:08:52;;;;;;;7.65;5.35;;;;;;;;;;5061204;28;20041;-77
2024/03/19 11:11:18;;;;;;;7.10;5.50;;;;;;;;;;5062836;28;20032;-77
2024/03/19 11:13:50;;;;;;;7.13;5.65;;;;;;;;;;5056256;28;20059;-76
2024/03/19 11:16:16;;;;;;;9.95;5.50;;;;;;;;;;5054710;28;20512;-76
2024/03/19 11:18:44;;;;;;;7.78;5.18;;;;;;;;;;5065669;28;20074;-78
2024/03/19 11:21:22;;;;;;;10.07;5.78;;;;;;;;;;5064468;28;20062;-79
2024/03/19 11:23:51;;;;;;;8.48;5.40;;;;;;;;;;5065521;28;20290;-77
2024/03/19 11:26:16;;;;;;;7.78;5.30;;;;;;;;;;5063317;28;20036;-78
2024/03/19 11:28:57;;;;;;;9.60;5.70;;;;;;;;;;5071288;28;20032;-78
2024/03/19 11:31:36;;;;;;;10.82;6.15;;;;;;;;;;5034079;28;20145;-78
2024/03/19 11:34:02;;;;;;;10.40;5.80;;;;;;;;;;5071608;28;20478;-77
2024/03/19 11:36:28;;;;;;;8.75;5.60;;;;;;;;;;5044735;28;20042;-77
2024/03/19 11:38:53;;;;;;;9.90;5.95;;;;;;;;;;5044537;28;20124;-78
2024/03/19 11:41:19;;;;;;;7.93;5.78;;;;;;;;;;5064381;28;20114;-77
2024/03/19 11:43:44;;;;;;;8.65;5.47;;;;;;;;;;5076989;28;20031;-78
2024/03/19 11:46:11;;;;;;;9.43;5.43;;;;;;;;;;5049136;28;20040;-78
2024/03/19 11:48:36;;;;;;;7.38;5.50;;;;;;;;;;5072601;28;20097;-77
2024/03/19 11:51:01;;;;;;;12.05;6.30;;;;;;;;;;5055209;28;20513;-77
2024/03/19 11:53:27;;;;;;;10.52;6.45;;;;;;;;;;5042787;28;20039;-77
2024/03/19 11:55:54;;;;;;;9.93;5.82;;;;;;;;;;5063986;28;20036;-78
2024/03/19 11:58:20;;;;;;;10.82;6.10;;;;;;;;;;5063464;28;20032;-79
2024/03/19 12:00:46;;;;;;;12.00;6.15;;;;;;;;;;5052568;28;20040;-76
2024/03/19 12:03:19;;;;;;;9.70;6.35;;;;;;;;;;5059901;28;20118;-79
2024/03/19 12:05:46;;;;;;;8.15;6.07;;;;;;;;;;5053093;28;20032;-77
2024/03/19 12:08:12;;;;;;;7.95;4.97;;;;;;;;;;5066054;28;20048;-78
2024/03/19 12:10:42;;;;;;;11.30;6.80;;;;;;;;;;5052555;28;20525;-78
2024/03/19 12:13:08;;;;;;;10.38;6.85;;;;;;;;;;5072307;28;20091;-78
2024/03/19 12:15:34;;;;;;;11.45;6.13;;;;;;;;;;5071363;28;20036;-80
2024/03/19 12:17:59;;;;;;;11.52;7.10;;;;;;;;;;5057035;28;20808;-78
2024/03/19 12:20:25;;;;;;;13.45;6.93;;;;;;;;;;5068067;28;20036;-78
2024/03/19 12:22:52;;;;;;;10.02;6.50;;;;;;;;;;5066130;28;20044;-79
2024/03/19 12:25:22;;;;;;;12.07;7.43;;;;;;;;;;5063428;28;20040;-78
2024/03/19 12:27:48;;;;;;;13.48;7.28;;;;;;;;;;5063423;28;20029;-78
2024/03/19 12:30:18;;;;;;;14.73;7.45;;;;;;;;;;5070084;28;20551;-78
2024/03/19 12:32:59;;;;;;;9.05;6.25;;;;;;;;;;5068350;28;20152;-79
2024/03/19 12:35:32;;;;;;;10.95;7.10;;;;;;;;;;5032075;28;21052;-78
2024/03/19 12:37:58;;;;;;;10.55;7.20;;;;;;;;;;5070230;28;20046;-78
2024/03/19 12:40:24;;;;;;;14.75;7.90;;;;;;;;;;5055323;28;20032;-79
2024/03/19 12:42:51;;;;;;;9.10;5.45;;;;;;;;;;5072000;28;20036;-78
2024/03/19 12:45:19;;;;;;;10.50;6.60;;;;;;;;;;5075470;28;20115;-77
2024/03/19 12:47:45;;;;;;;11.32;7.53;;;;;;;;;;5068662;28;20105;-78
2024/03/19 12:50:12;;;;;;;11.45;7.50;;;;;;;;;;5057230;28;20041;-78
2024/03/19 12:52:37;;;;;;;9.73;5.78;;;;;;;;;;5065491;28;20032;-77
2024/03/19 12:55:03;;;;;;;12.48;7.43;;;;;;;;;;5052164;28;20596;-77
2024/03/19 12:57:29;;;;;;;11.30;7.07;;;;;;;;;;5056498;28;20102;-77
2024/03/19 12:59:55;;;;;;;11.13;7.15;;;;;;;;;;5062476;28;20036;-77
2024/03/19 13:02:20;;;;;;;12.02;7.50;;;;;;;;;;5062279;28;20086;-77
2024/03/19 13:04:46;;;;;;;12.68;7.85;;;;;;;;;;5050786;28;20043;-76
2024/03/19 13:07:11;;;;;;;12.70;7.20;;;;;;;;;;5056143;28;20068;-77
2024/03/19 13:09:37;;;;;;;13.45;7.75;;;;;;;;;;5066531;28;20070;-77
2024/03/19 13:12:02;;;;;;;12.82;7.65;;;;;;;;;;5062141;28;20042;-77
2024/03/19 13:14:28;;;;;;;12.32;7.93;;;;;;;;;;5052508;28;20029;-77
2024/03/19 13:16:53;;;;;;;9.27;7.22;;;;;;;;;;5061079;28;20051;-77
2024/03/19 13:19:18;;;;;;;12.18;7.53;;;;;;;;;;5068431;28;20035;-76
2024/03/19 13:21:44;;;;;;;12.60;7.93;;;;;;;;;;5075445;28;20035;-77
2024/03/19 13:24:10;;;;;;;13.02;7.60;;;;;;;;;;5064237;28;20524;-76
2024/03/19 13:26:35;;;;;;;14.05;7.93;;;;;;;;;;5067737;28;20144;-77
2024/03/19 13:29:01;;;;;;;12.02;7.88;;;;;;;;;;5067737;28;20048;-78
2024/03/19 13:31:27;;;;;;;13.93;8.10;;;;;;;;;;5064965;28;20047;-78
2024/03/19 13:33:52;;;;;;;12.20;7.55;;;;;;;;;;5077844;28;20032;-77
2024/03/19 13:36:18;;;;;;;13.52;7.35;;;;;;;;;;5077156;28;20532;-77
2024/03/19 13:38:48;;;;;;;11.93;7.07;;;;;;;;;;5058439;28;20101;-78
2024/03/19 13:41:17;;;;;;;10.55;6.78;;;;;;;;;;5027090;28;20536;-78
2024/03/19 13:43:42;;;;;;;13.13;7.93;;;;;;;;;;5063223;28;20439;-78
2024/03/19 13:46:07;;;;;;;10.90;6.68;;;;;;;;;;5076033;28;20048;-79
2024/03/19 13:48:33;;;;;;;15.15;8.15;;;;;;;;;;5076969;28;20039;-78
2024/03/19 13:50:59;;;;;;;14.03;8.07;;;;;;;;;;5061064;28;20036;-78
2024/03/19 13:53:25;;;;;;;15.43;7.85;;;;;;;;;;5071011;28;20250;-78
2024/03/19 13:55:52;;;;;;;13.20;7.60;;;;;;;;;;5065424;28;20108;-77
2024/03/19 13:58:17;;;;;;;14.45;8.40;;;;;;;;;;5076471;28;20033;-78
2024/03/19 14:00:42;;;;;;;16.05;8.38;;;;;;;;;;5071260;28;20135;-78
2024/03/19 14:03:11;;;;;;;12.88;7.38;;;;;;;;;;5068416;28;20198;-78
2024/03/19 14:05:44;;;;;;;14.57;8.90;;;;;;;;;;5072185;28;20705;-78
2024/03/19 14:08:10;;;;;;;14.63;8.35;;;;;;;;;;5077974;27;20118;-78
2024/03/19 14:10:39;;;;;;;14.43;9.52;;;;;;;;;;5076907;28;20036;-78
2024/03/19 14:13:05;;;;;;;12.75;8.25;;;;;;;;;;5064422;28;20044;-78
2024/03/19 14:15:31;;;;;;;13.38;8.35;;;;;;;;;;5071550;28;20525;-78
2024/03/19 14:17:56;;;;;;;14.07;8.50;;;;;;;;;;5070156;28;20155;-77
2024/03/19 14:20:23;;;;;;;11.77;8.18;;;;;;;;;;5062259;28;20049;-77
2024/03/19 14:22:51;;;;;;;13.10;8.20;;;;;;;;;;5067641;28;20067;-78
2024/03/19 14:25:17;;;;;;;13.60;9.32;;;;;;;;;;5035765;28;20529;-78
2024/03/19 14:27:45;;;;;;;16.15;9.10;;;;;;;;;;5053789;28;20032;-78
2024/03/19 14:30:12;;;;;;;15.93;8.95;;;;;;;;;;5033220;28;20592;-77
2024/03/19 14:32:39;;;;;;;17.17;9.30;;;;;;;;;;5064998;28;20079;-78
2024/03/19 14:35:06;;;;;;;13.65;8.30;;;;;;;;;;5061096;28;20100;-77